Time;durP1;ratioP1;P1;durP2;ratioP2;P2;SDS_P1;SDS_P2;PMS_P1;PMS_P2;Temp;Humidity;BMP_temperature;BMP_pressure;BME280_temperature;BME280_humidity;BME280_pressure;Samples;Min_cycle;Max_cycle;Signal;HPM_P1;HPM_P2
2021/06/26 00:01:32;;;;;;;1.23;1.13;;;21.10;75.00;;;;;;4208384;28;20071;-59
2021/06/26 00:03:55;;;;;;;1.17;0.50;;;21.10;75.00;;;;;;4207626;28;20391;-59
2021/06/26 00:06:17;;;;;;;0.30;0.30;;;21.10;74.90;;;;;;4207953;28;20502;-58
2021/06/26 00:08:40;;;;;;;0.32;0.32;;;21.10;75.00;;;;;;4202754;28;20054;-58
2021/06/26 00:11:04;;;;;;;0.10;0.10;;;21.10;75.10;;;;;;4208122;28;20074;-59
2021/06/26 00:13:27;;;;;;;0.75;0.75;;;21.10;75.90;;;;;;4208168;28;20047;-59
2021/06/26 00:15:49;;;;;;;1.90;0.70;;;21.10;75.10;;;;;;4192963;28;20491;-59
2021/06/26 00:18:12;;;;;;;0.73;0.73;;;21.10;75.10;;;;;;4207528;28;20127;-59
2021/06/26 00:20:34;;;;;;;0.35;0.35;;;21.10;75.10;;;;;;4208155;28;20051;-59
2021/06/26 00:22:56;;;;;;;1.00;1.00;;;21.10;75.10;;;;;;4207543;28;20044;-59
2021/06/26 00:25:22;;;;;;;1.08;0.90;;;21.10;75.10;;;;;;4208109;28;20505;-59
2021/06/26 00:27:45;;;;;;;0.65;0.65;;;21.10;75.10;;;;;;4207825;28;20058;-58
2021/06/26 00:30:08;;;;;;;0.20;0.20;;;21.10;75.20;;;;;;4207824;28;20536;-58
2021/06/26 00:32:30;;;;;;;0.38;0.38;;;21.10;75.20;;;;;;4208203;28;20759;-59
2021/06/26 00:34:53;;;;;;;0.65;0.65;;;21.10;75.20;;;;;;4206263;28;20410;-59
2021/06/26 00:37:15;;;;;;;0.70;0.70;;;21.10;75.20;;;;;;4207676;28;20068;-59
2021/06/26 00:39:37;;;;;;;0.60;0.30;;;21.00;75.20;;;;;;4207255;28;20576;-59
2021/06/26 00:42:02;;;;;;;1.85;1.75;;;21.00;75.30;;;;;;4206452;28;20047;-58
2021/06/26 00:44:28;;;;;;;1.08;1.08;;;21.00;75.10;;;;;;4207446;28;20492;-59
2021/06/26 00:46:50;;;;;;;0.17;0.17;;;21.00;76.10;;;;;;4207356;28;20509;-59
2021/06/26 00:49:12;;;;;;;1.25;1.23;;;21.00;75.20;;;;;;4206986;28;20482;-59
2021/06/26 00:51:35;;;;;;;1.30;1.30;;;21.00;75.30;;;;;;4207773;28;20222;-59
2021/06/26 00:53:57;;;;;;;1.48;1.48;;;21.00;75.30;;;;;;4207603;28;20044;-60
2021/06/26 00:56:19;;;;;;;0.40;0.40;;;21.00;75.30;;;;;;4207783;28;20059;-59
2021/06/26 00:58:43;;;;;;;4.38;4.03;;;21.10;75.40;;;;;;4207357;28;20047;-59
2021/06/26 01:01:05;;;;;;;0.55;0.40;;;21.10;75.50;;;;;;4207858;28;20135;-58
2021/06/26 01:03:28;;;;;;;0.55;0.45;;;21.10;75.50;;;;;;4205900;28;20093;-59
2021/06/26 01:05:51;;;;;;;0.35;0.35;;;21.10;75.50;;;;;;4207268;28;20045;-59
2021/06/26 01:08:13;;;;;;;1.17;1.17;;;21.00;75.50;;;;;;4207843;28;20487;-59
2021/06/26 01:10:35;;;;;;;0.30;0.30;;;21.00;76.50;;;;;;4206049;28;20486;-58
2021/06/26 01:12:57;;;;;;;0.25;0.25;;;21.00;75.60;;;;;;4207627;28;20093;-59
2021/06/26 01:15:21;;;;;;;0.38;0.38;;;21.00;75.60;;;;;;4207091;28;20046;-59
2021/06/26 01:17:42;;;;;;;0.95;0.95;;;21.00;75.70;;;;;;4210362;28;20052;-59
2021/06/26 01:20:08;;;;;;;0.35;0.35;;;21.00;75.60;;;;;;4210442;28;20051;-59
2021/06/26 01:22:35;;;;;;;0.52;0.52;;;21.00;75.70;;;;;;4210070;28;20102;-58
2021/06/26 01:24:58;;;;;;;0.20;0.20;;;21.00;75.70;;;;;;4194013;28;20055;-59
2021/06/26 01:27:20;;;;;;;2.10;2.00;;;21.00;75.70;;;;;;4205120;28;20461;-58
2021/06/26 01:29:48;;;;;;;0.35;0.35;;;21.00;75.80;;;;;;4210330;28;20044;-58
2021/06/26 01:32:10;;;;;;;0.65;0.65;;;21.00;75.80;;;;;;4210466;28;20132;-58
2021/06/26 01:34:32;;;;;;;1.55;0.73;;;21.00;75.90;;;;;;4205101;28;20051;-58
2021/06/26 01:36:54;;;;;;;3.20;1.13;;;21.00;75.90;;;;;;4210282;28;20557;-58
2021/06/26 01:39:18;;;;;;;0.30;0.30;;;21.00;75.90;;;;;;4210431;28;20502;-58
2021/06/26 01:41:40;;;;;;;1.17;0.80;;;21.00;76.00;;;;;;4210307;28;20075;-59
2021/06/26 01:44:03;;;;;;;1.65;1.55;;;21.00;76.00;;;;;;4209847;28;20044;-59
2021/06/26 01:46:26;;;;;;;1.25;1.25;;;21.00;76.10;;;;;;4210407;28;20055;-59
2021/06/26 01:48:48;;;;;;;4.65;1.55;;;21.00;76.20;;;;;;4210319;28;20040;-58
2021/06/26 01:51:11;;;;;;;0.35;0.35;;;21.00;76.10;;;;;;4210497;28;20044;-58
2021/06/26 01:53:33;;;;;;;0.75;0.75;;;21.00;76.20;;;;;;4210082;28;20846;-59
2021/06/26 01:55:56;;;;;;;0.20;0.20;;;21.00;76.20;;;;;;4209903;28;20047;-59
2021/06/26 01:58:19;;;;;;;0.10;0.10;;;21.00;76.20;;;;;;4209891;28;20125;-59
2021/06/26 02:00:41;;;;;;;0.57;0.57;;;21.00;76.20;;;;;;4208736;28;20044;-59
2021/06/26 02:03:04;;;;;;;1.35;0.75;;;21.00;76.20;;;;;;4209841;28;20044;-59
2021/06/26 02:05:25;;;;;;;0.50;0.50;;;21.00;76.30;;;;;;4210048;28;20480;-59
2021/06/26 02:07:48;;;;;;;0.35;0.35;;;21.00;76.30;;;;;;4209768;28;20125;-59
2021/06/26 02:10:12;;;;;;;0.90;0.90;;;21.00;76.30;;;;;;4209886;28;20121;-59
2021/06/26 02:12:37;;;;;;;0.60;0.60;;;21.00;76.30;;;;;;4209108;28;20486;-58
2021/06/26 02:15:01;;;;;;;0.32;0.32;;;21.00;76.20;;;;;;4193061;28;20052;-59
2021/06/26 02:17:24;;;;;;;1.65;1.55;;;21.00;76.30;;;;;;4193075;28;20536;-59
2021/06/26 02:19:46;;;;;;;0.43;0.43;;;21.00;76.30;;;;;;4177412;28;20719;-59
2021/06/26 02:22:08;;;;;;;0.90;0.90;;;21.00;76.30;;;;;;4192947;28;20060;-59
2021/06/26 02:24:30;;;;;;;7.75;0.80;;;21.00;76.40;;;;;;4192893;28;20055;-59
2021/06/26 02:26:52;;;;;;;0.65;0.65;;;21.00;76.40;;;;;;4209405;28;20182;-58
2021/06/26 02:29:15;;;;;;;1.10;1.08;;;21.00;76.40;;;;;;4209073;28;20097;-59
2021/06/26 02:31:38;;;;;;;0.57;0.57;;;21.00;76.30;;;;;;4210009;28;20043;-59
2021/06/26 02:33:59;;;;;;;0.10;0.10;;;21.00;76.40;;;;;;4209211;28;20410;-59
2021/06/26 02:36:23;;;;;;;0.20;0.20;;;21.00;76.50;;;;;;4209341;28;20079;-58
2021/06/26 02:38:45;;;;;;;1.02;1.02;;;21.00;76.40;;;;;;4207731;28;20050;-59
2021/06/26 02:41:07;;;;;;;0.40;0.40;;;21.00;76.50;;;;;;4209177;28;20051;-59
2021/06/26 02:43:30;;;;;;;0.20;0.20;;;20.90;76.50;;;;;;4204518;28;20052;-59
2021/06/26 02:45:53;;;;;;;1.65;1.05;;;20.90;76.50;;;;;;4209427;28;20040;-59
2021/06/26 02:48:16;;;;;;;0.52;0.52;;;21.00;76.60;;;;;;4209414;28;20072;-59
2021/06/26 02:50:38;;;;;;;0.80;0.80;;;21.00;77.50;;;;;;4209355;28;20510;-59
2021/06/26 02:53:00;;;;;;;0.00;0.00;;;21.00;76.80;;;;;;4208771;28;20497;-59
2021/06/26 02:55:22;;;;;;;3.30;1.92;;;21.00;76.70;;;;;;4208799;28;20482;-58
2021/06/26 02:57:44;;;;;;;0.47;0.47;;;21.00;76.60;;;;;;4208820;28;20052;-58
2021/06/26 03:00:08;;;;;;;0.75;0.75;;;21.00;76.60;;;;;;4207936;28;20043;-58
2021/06/26 03:02:32;;;;;;;0.32;0.32;;;21.00;76.60;;;;;;4208979;28;20052;-59
2021/06/26 03:04:54;;;;;;;1.08;1.08;;;21.00;76.60;;;;;;4209067;28;20612;-58
2021/06/26 03:07:16;;;;;;;0.00;0.00;;;20.90;76.60;;;;;;4209280;28;20054;-59
2021/06/26 03:09:38;;;;;;;1.88;1.20;;;20.90;76.60;;;;;;4209083;28;20051;-58
2021/06/26 03:12:01;;;;;;;0.60;0.60;;;20.90;76.60;;;;;;4192054;28;20060;-58
2021/06/26 03:14:24;;;;;;;0.25;0.25;;;21.00;76.80;;;;;;4208561;28;20044;-58
2021/06/26 03:16:46;;;;;;;1.17;1.17;;;20.90;76.70;;;;;;4208776;28;20131;-58
2021/06/26 03:19:10;;;;;;;6.40;1.38;;;20.90;76.70;;;;;;4208625;28;20504;-59
2021/06/26 03:21:32;;;;;;;0.40;0.40;;;20.90;76.70;;;;;;4207643;28;20058;-58
2021/06/26 03:23:54;;;;;;;0.70;0.70;;;20.90;76.70;;;;;;4208655;28;20536;-59
2021/06/26 03:26:16;;;;;;;0.85;0.85;;;20.90;76.70;;;;;;4208473;28;20046;-58
2021/06/26 03:28:38;;;;;;;0.90;0.90;;;20.90;76.70;;;;;;4208350;28;20098;-58
2021/06/26 03:31:05;;;;;;;2.10;0.63;;;20.90;76.80;;;;;;4208880;28;20086;-59
2021/06/26 03:33:28;;;;;;;0.10;0.10;;;20.90;76.90;;;;;;4208334;28;20149;-59
2021/06/26 03:35:52;;;;;;;0.30;0.30;;;20.90;76.80;;;;;;4208751;28;20547;-59
2021/06/26 03:38:13;;;;;;;0.70;0.70;;;20.90;76.80;;;;;;4206751;28;20494;-58
2021/06/26 03:40:36;;;;;;;0.35;0.35;;;20.90;76.70;;;;;;4207490;28;20075;-58
2021/06/26 03:42:57;;;;;;;1.33;1.30;;;20.90;76.80;;;;;;4207947;28;20127;-58
2021/06/26 03:45:20;;;;;;;0.10;0.10;;;20.90;76.80;;;;;;4208507;28;20051;-58
2021/06/26 03:47:42;;;;;;;1.25;1.25;;;20.90;76.90;;;;;;4208089;28;20044;-58
2021/06/26 03:50:05;;;;;;;0.77;0.77;;;20.90;77.00;;;;;;4208519;28;20050;-58
2021/06/26 03:52:29;;;;;;;0.55;0.55;;;20.90;77.10;;;;;;4208205;28;20101;-58
2021/06/26 03:54:51;;;;;;;0.20;0.20;;;20.90;77.10;;;;;;4208647;28;20486;-59
2021/06/26 03:57:13;;;;;;;1.45;1.45;;;20.90;77.30;;;;;;4206677;28;20047;-59
2021/06/26 03:59:36;;;;;;;0.93;0.85;;;20.90;77.30;;;;;;4205510;28;20124;-59
2021/06/26 04:01:58;;;;;;;0.13;0.13;;;20.90;77.40;;;;;;4208576;28;20135;-59
2021/06/26 04:04:20;;;;;;;0.70;0.70;;;20.90;77.40;;;;;;4208170;28;20052;-59
2021/06/26 04:06:43;;;;;;;0.05;0.05;;;20.90;77.40;;;;;;4208062;28;20052;-59
2021/06/26 04:09:06;;;;;;;0.70;0.70;;;20.90;77.50;;;;;;4207710;28;20043;-59
2021/06/26 04:11:28;;;;;;;0.35;0.35;;;20.90;77.60;;;;;;4208469;28;20485;-58
2021/06/26 04:13:51;;;;;;;2.45;1.10;;;20.90;77.60;;;;;;4220645;28;20149;-58
2021/06/26 04:16:13;;;;;;;0.52;0.52;;;20.90;77.60;;;;;;4207980;28;20139;-59
2021/06/26 04:18:35;;;;;;;0.32;0.32;;;20.90;77.60;;;;;;4207342;28;20468;-59
2021/06/26 04:20:57;;;;;;;0.10;0.10;;;20.90;77.70;;;;;;4207942;28;20101;-58
2021/06/26 04:23:19;;;;;;;1.92;1.20;;;20.80;77.60;;;;;;4207867;28;20549;-58
2021/06/26 04:25:43;;;;;;;1.98;1.65;;;20.80;77.70;;;;;;4207928;28;20105;-59
2021/06/26 04:28:06;;;;;;;3.70;0.85;;;20.80;77.70;;;;;;4207456;28;20097;-58
2021/06/26 04:30:31;;;;;;;0.10;0.10;;;20.80;77.70;;;;;;4207600;28;20052;-59
2021/06/26 04:32:53;;;;;;;1.05;1.05;;;20.80;77.70;;;;;;4208001;28;20063;-58
2021/06/26 04:35:19;;;;;;;0.10;0.10;;;20.90;77.80;;;;;;4207644;28;20546;-58
2021/06/26 04:37:42;;;;;;;0.30;0.30;;;20.90;77.80;;;;;;4206051;28;20052;-58
2021/06/26 04:40:04;;;;;;;0.45;0.45;;;20.90;77.80;;;;;;4207273;28;20048;-58
2021/06/26 04:42:28;;;;;;;0.45;0.45;;;20.90;77.80;;;;;;4207654;28;20048;-58
2021/06/26 04:44:50;;;;;;;2.75;2.00;;;20.90;78.60;;;;;;4207977;28;20056;-58
2021/06/26 04:47:13;;;;;;;0.00;0.00;;;20.90;77.80;;;;;;4205875;28;20117;-59
2021/06/26 04:49:36;;;;;;;0.30;0.30;;;20.90;77.80;;;;;;4207778;28;20075;-59
2021/06/26 04:51:58;;;;;;;1.27;0.90;;;20.90;77.80;;;;;;4210935;28;20401;-59
2021/06/26 04:54:20;;;;;;;0.73;0.73;;;20.90;77.80;;;;;;4211124;28;20138;-59
2021/06/26 04:56:43;;;;;;;0.55;0.52;;;20.90;77.80;;;;;;4211188;28;20063;-58
2021/06/26 04:59:06;;;;;;;1.67;1.58;;;20.90;77.80;;;;;;4210551;28;20052;-58
2021/06/26 05:01:28;;;;;;;0.30;0.30;;;20.90;77.70;;;;;;4211346;28;20848;-59
2021/06/26 05:03:50;;;;;;;0.43;0.43;;;20.90;77.70;;;;;;4210986;28;20040;-59
2021/06/26 05:06:13;;;;;;;0.63;0.63;;;20.90;77.70;;;;;;4210686;28;20048;-59
2021/06/26 05:08:35;;;;;;;3.50;1.10;;;20.90;77.60;;;;;;4210691;28;20109;-58
2021/06/26 05:10:57;;;;;;;0.05;0.05;;;20.90;77.70;;;;;;4209596;28;20044;-52
2021/06/26 05:13:19;;;;;;;0.20;0.20;;;20.90;77.80;;;;;;4209485;28;20052;-58
2021/06/26 05:15:42;;;;;;;0.52;0.52;;;20.90;78.30;;;;;;4211138;28;20051;-58
2021/06/26 05:18:05;;;;;;;0.30;0.30;;;21.00;78.00;;;;;;4209573;28;20131;-58
2021/06/26 05:20:28;;;;;;;0.60;0.60;;;21.00;77.70;;;;;;4209943;28;20517;-55
2021/06/26 05:22:50;;;;;;;0.88;0.82;;;21.00;77.70;;;;;;4210585;28;20410;-58
2021/06/26 05:25:13;;;;;;;0.80;0.73;;;21.00;77.70;;;;;;4193655;28;20445;-59
2021/06/26 05:27:35;;;;;;;0.85;0.85;;;21.00;77.70;;;;;;4200874;28;20566;-58
2021/06/26 05:29:57;;;;;;;0.28;0.28;;;21.00;77.70;;;;;;4210466;28;20051;-58
2021/06/26 05:32:21;;;;;;;0.80;0.80;;;21.00;77.80;;;;;;4210036;28;20047;-58
2021/06/26 05:34:43;;;;;;;4.22;1.58;;;21.00;77.80;;;;;;4209840;28;20048;-59
2021/06/26 05:37:05;;;;;;;0.45;0.45;;;21.00;77.80;;;;;;4208517;28;20494;-58
2021/06/26 05:39:27;;;;;;;0.40;0.40;;;21.00;77.90;;;;;;4210477;28;20448;-58
2021/06/26 05:41:49;;;;;;;0.20;0.20;;;21.00;77.90;;;;;;4210586;28;20138;-58
2021/06/26 05:44:11;;;;;;;0.60;0.60;;;21.00;78.00;;;;;;4210302;28;20410;-58
2021/06/26 05:46:34;;;;;;;0.73;0.73;;;21.00;78.00;;;;;;4210350;28;20131;-58
2021/06/26 05:48:57;;;;;;;1.85;1.45;;;21.00;77.80;;;;;;4209882;28;20490;-58
2021/06/26 05:51:21;;;;;;;0.77;0.70;;;21.00;77.90;;;;;;4210165;28;20044;-58
2021/06/26 05:53:43;;;;;;;0.40;0.40;;;21.00;77.80;;;;;;4209517;28;20048;-58
2021/06/26 05:56:05;;;;;;;0.20;0.20;;;21.00;77.90;;;;;;4210314;28;20055;-59
2021/06/26 05:58:29;;;;;;;0.25;0.25;;;21.00;77.90;;;;;;4209775;28;20055;-59
2021/06/26 06:00:52;;;;;;;0.82;0.82;;;21.00;78.70;;;;;;4210290;28;20546;-59
2021/06/26 06:03:14;;;;;;;0.57;0.57;;;21.00;77.80;;;;;;4209189;28;20052;-59
2021/06/26 06:05:37;;;;;;;0.43;0.43;;;21.00;78.60;;;;;;4209986;28;20050;-58
2021/06/26 06:08:00;;;;;;;1.13;1.00;;;21.10;85.80;;;;;;4209468;28;20477;-56
2021/06/26 06:10:22;;;;;;;1.45;1.45;;;21.10;87.60;;;;;;4209972;28;20460;-59
2021/06/26 06:12:45;;;;;;;1.52;1.42;;;21.20;87.80;;;;;;4209818;28;20051;-58
2021/06/26 06:15:10;;;;;;;1.92;1.77;;;21.20;87.30;;;;;;4209694;28;20058;-58
2021/06/26 06:17:33;;;;;;;35.42;2.70;;;21.20;86.10;;;;;;4209952;28;20059;-58
2021/06/26 06:19:55;;;;;;;2.40;1.65;;;21.20;85.30;;;;;;4209210;28;20056;-59
2021/06/26 06:22:23;;;;;;;3.85;1.27;;;21.30;84.40;;;;;;4209716;28;20055;-57
2021/06/26 06:24:45;;;;;;;0.40;0.40;;;21.30;84.40;;;;;;4209605;28;20055;-58
2021/06/26 06:27:08;;;;;;;1.08;1.05;;;21.30;83.00;;;;;;4209151;28;20051;-57
2021/06/26 06:29:30;;;;;;;0.40;0.40;;;21.30;82.80;;;;;;4207501;28;20055;-58
2021/06/26 06:31:52;;;;;;;8.25;3.72;;;21.30;82.00;;;;;;4208844;28;20048;-57
2021/06/26 06:34:15;;;;;;;13.15;1.67;;;21.40;81.50;;;;;;4208249;28;20052;-52
2021/06/26 06:36:37;;;;;;;2.25;2.05;;;21.40;81.30;;;;;;4204817;28;20055;-56
2021/06/26 06:39:00;;;;;;;1.05;0.95;;;21.40;80.90;;;;;;4209477;28;20130;-57
2021/06/26 06:41:24;;;;;;;0.68;0.68;;;21.50;80.70;;;;;;4208284;28;20048;-54
2021/06/26 06:43:46;;;;;;;4.80;2.33;;;21.50;80.40;;;;;;4200602;28;20048;-54
2021/06/26 06:46:08;;;;;;;3.90;0.88;;;21.60;79.90;;;;;;4207326;28;20050;-58
2021/06/26 06:48:30;;;;;;;2.42;2.33;;;21.70;79.20;;;;;;4209297;28;20071;-55
2021/06/26 06:50:53;;;;;;;0.73;0.73;;;21.70;78.80;;;;;;4200044;28;20104;-57
2021/06/26 06:53:15;;;;;;;1.83;1.73;;;21.80;78.50;;;;;;4192081;28;20040;-57
2021/06/26 06:55:38;;;;;;;2.10;2.10;;;21.80;78.40;;;;;;4206400;28;20122;-57
2021/06/26 06:58:00;;;;;;;3.85;1.40;;;21.90;78.40;;;;;;4208596;28;20044;-56
2021/06/26 07:00:22;;;;;;;1.90;1.80;;;21.90;78.10;;;;;;4192212;28;20494;-57
2021/06/26 07:02:44;;;;;;;2.03;1.92;;;21.90;77.90;;;;;;4204804;28;20464;-57
2021/06/26 07:05:08;;;;;;;3.00;1.75;;;22.00;77.90;;;;;;4208738;28;20044;-60
2021/06/26 07:07:30;;;;;;;7.88;2.85;;;22.10;77.70;;;;;;4208552;28;20137;-56
2021/06/26 07:09:52;;;;;;;0.57;0.57;;;22.10;77.40;;;;;;4207420;28;20056;-55
2021/06/26 07:12:16;;;;;;;1.23;1.23;;;22.20;77.10;;;;;;4208830;28;20134;-57
2021/06/26 07:14:38;;;;;;;2.63;1.40;;;22.30;76.90;;;;;;4208376;28;20059;-57
2021/06/26 07:17:01;;;;;;;0.93;0.93;;;22.30;76.70;;;;;;4208817;28;20048;-54
2021/06/26 07:19:23;;;;;;;0.47;0.47;;;22.30;76.60;;;;;;4208616;28;20047;-56
2021/06/26 07:21:45;;;;;;;1.35;1.33;;;22.30;76.50;;;;;;4208895;28;20127;-58
2021/06/26 07:24:08;;;;;;;1.75;0.85;;;22.30;76.30;;;;;;4206587;28;20040;-58
2021/06/26 07:26:31;;;;;;;2.05;1.95;;;22.30;76.60;;;;;;4208351;28;20048;-58
2021/06/26 07:28:54;;;;;;;3.75;2.40;;;22.30;76.70;;;;;;4208154;28;20094;-58
2021/06/26 07:31:16;;;;;;;6.53;2.17;;;22.30;76.60;;;;;;4208653;28;20048;-59
2021/06/26 07:33:38;;;;;;;3.33;1.60;;;22.20;76.70;;;;;;4207939;28;20052;-59
2021/06/26 07:36:00;;;;;;;0.30;0.30;;;22.20;76.70;;;;;;4208213;28;20460;-58
2021/06/26 07:38:23;;;;;;;1.55;1.55;;;22.20;76.90;;;;;;4206917;28;20048;-59
2021/06/26 07:40:45;;;;;;;0.90;0.90;;;22.20;77.00;;;;;;4206940;28;20109;-59
2021/06/26 07:43:07;;;;;;;0.68;0.68;;;22.20;77.00;;;;;;4196722;28;20072;-58
2021/06/26 07:45:31;;;;;;;2.63;2.53;;;22.20;77.10;;;;;;4208355;28;20099;-58
2021/06/26 07:47:53;;;;;;;1.30;1.30;;;22.20;77.30;;;;;;4207560;28;20044;-57
2021/06/26 07:50:15;;;;;;;1.35;1.27;;;22.10;77.30;;;;;;4208578;28;20112;-58
2021/06/26 07:52:37;;;;;;;1.25;1.25;;;22.10;77.20;;;;;;4205962;28;20052;-58
2021/06/26 07:55:00;;;;;;;2.63;1.55;;;22.10;77.10;;;;;;4207554;28;20051;-58
2021/06/26 07:57:22;;;;;;;1.25;1.25;;;22.20;77.00;;;;;;4207433;28;20056;-58
2021/06/26 07:59:44;;;;;;;1.95;1.25;;;22.20;76.70;;;;;;4207967;28;20055;-59
2021/06/26 08:02:08;;;;;;;0.38;0.35;;;22.20;76.60;;;;;;4207959;28;20059;-58
2021/06/26 08:04:30;;;;;;;1.08;1.00;;;22.20;76.40;;;;;;4206954;28;20490;-58
2021/06/26 08:06:52;;;;;;;0.93;0.93;;;22.20;76.30;;;;;;4208052;28;20082;-57
2021/06/26 08:09:15;;;;;;;2.08;1.95;;;22.20;76.20;;;;;;4208109;28;20052;-58
2021/06/26 08:11:37;;;;;;;0.63;0.63;;;22.20;76.10;;;;;;4207253;28;20121;-58
2021/06/26 08:13:59;;;;;;;2.75;1.77;;;22.20;75.90;;;;;;4207829;28;20048;-59
2021/06/26 08:16:21;;;;;;;0.75;0.75;;;22.20;75.90;;;;;;4208091;28;20537;-57
2021/06/26 08:18:44;;;;;;;2.20;2.03;;;22.30;76.00;;;;;;4207868;28;20051;-58
2021/06/26 08:21:07;;;;;;;0.52;0.52;;;22.30;75.90;;;;;;4207811;28;20059;-58
2021/06/26 08:23:30;;;;;;;0.20;0.20;;;22.40;75.90;;;;;;4207390;28;20758;-58
2021/06/26 08:25:53;;;;;;;2.63;1.80;;;22.40;75.70;;;;;;4200461;28;20048;-59
2021/06/26 08:28:15;;;;;;;1.10;1.10;;;22.40;75.50;;;;;;4206479;28;20140;-58
2021/06/26 08:30:37;;;;;;;1.83;1.73;;;22.50;75.30;;;;;;4207862;28;20055;-58
2021/06/26 08:32:59;;;;;;;1.38;1.33;;;22.50;75.10;;;;;;4191188;28;20127;-58
2021/06/26 08:35:23;;;;;;;1.02;1.02;;;22.50;74.90;;;;;;4191309;28;20052;-58
2021/06/26 08:37:47;;;;;;;1.52;1.45;;;22.60;74.70;;;;;;4191280;28;20121;-58
2021/06/26 08:40:10;;;;;;;1.45;1.45;;;22.60;74.60;;;;;;4191284;28;20431;-59
2021/06/26 08:42:32;;;;;;;0.50;0.50;;;22.60;74.30;;;;;;4191282;28;20052;-59
2021/06/26 08:45:00;;;;;;;0.13;0.13;;;22.60;74.20;;;;;;4191295;28;20418;-58
2021/06/26 08:47:22;;;;;;;2.30;1.65;;;22.60;74.00;;;;;;4190844;28;20048;-59
2021/06/26 08:49:46;;;;;;;1.45;1.45;;;22.60;73.90;;;;;;4189939;28;20518;-58
2021/06/26 08:52:10;;;;;;;1.48;1.00;;;22.70;73.80;;;;;;4205016;28;20520;-58
2021/06/26 08:54:32;;;;;;;0.20;0.20;;;22.70;73.70;;;;;;4207930;28;20517;-57
2021/06/26 08:56:54;;;;;;;0.32;0.32;;;22.70;73.60;;;;;;4207831;28;20044;-58
2021/06/26 08:59:18;;;;;;;0.82;0.82;;;22.80;73.60;;;;;;4207503;28;20715;-58
2021/06/26 09:01:41;;;;;;;1.95;0.70;;;22.80;73.40;;;;;;4208090;28;20048;-58
2021/06/26 09:04:05;;;;;;;0.43;0.43;;;22.90;73.30;;;;;;4207228;28;20686;-57
2021/06/26 09:06:30;;;;;;;0.57;0.57;;;22.90;73.10;;;;;;4207304;28;20154;-59
2021/06/26 09:08:53;;;;;;;3.30;0.73;;;22.90;73.00;;;;;;4207431;28;20130;-58
2021/06/26 09:11:19;;;;;;;4.30;3.92;;;23.00;72.80;;;;;;4205309;28;20040;-59
2021/06/26 09:13:41;;;;;;;1.25;1.20;;;23.00;72.60;;;;;;4205656;28;20048;-58
2021/06/26 09:16:07;;;;;;;4.63;1.63;;;23.00;72.40;;;;;;4207713;28;20125;-58
2021/06/26 09:18:30;;;;;;;1.08;1.08;;;23.10;72.20;;;;;;4207768;28;20487;-62
2021/06/26 09:20:54;;;;;;;0.77;0.77;;;23.10;72.00;;;;;;4207845;28;20482;-58
2021/06/26 09:23:18;;;;;;;2.13;2.03;;;23.20;71.80;;;;;;4207571;28;20070;-58
2021/06/26 09:25:41;;;;;;;1.27;1.27;;;23.20;71.60;;;;;;4207711;28;20048;-59
2021/06/26 09:28:08;;;;;;;0.65;0.65;;;23.30;72.20;;;;;;4207148;28;20097;-58
2021/06/26 09:30:35;;;;;;;0.40;0.40;;;23.30;71.10;;;;;;4207438;28;20048;-58
2021/06/26 09:32:57;;;;;;;0.98;0.98;;;23.30;70.70;;;;;;4207236;28;20084;-59
2021/06/26 09:35:19;;;;;;;0.88;0.80;;;23.30;70.40;;;;;;4207091;28;20051;-59
2021/06/26 09:37:41;;;;;;;0.73;0.73;;;23.40;70.40;;;;;;4208270;28;20055;-58
2021/06/26 09:40:05;;;;;;;0.13;0.13;;;23.40;70.40;;;;;;4210320;28;20598;-58
2021/06/26 09:42:30;;;;;;;2.13;1.13;;;23.40;70.20;;;;;;4210467;28;20486;-59
2021/06/26 09:44:55;;;;;;;0.30;0.30;;;23.50;70.10;;;;;;4209857;28;20054;-58
2021/06/26 09:47:29;;;;;;;1.02;1.02;;;23.50;70.80;;;;;;4210417;28;20040;-56
2021/06/26 09:49:52;;;;;;;1.10;1.10;;;23.50;69.80;;;;;;4209566;28;20048;-58
2021/06/26 09:52:14;;;;;;;0.30;0.30;;;23.50;69.80;;;;;;4210201;28;20063;-58
2021/06/26 09:54:36;;;;;;;2.65;1.58;;;23.50;69.80;;;;;;4210243;28;20851;-58
2021/06/26 09:56:58;;;;;;;0.43;0.43;;;23.50;69.70;;;;;;4210158;28;20048;-58
2021/06/26 09:59:30;;;;;;;0.55;0.55;;;23.50;69.80;;;;;;4208483;28;20054;-58
2021/06/26 10:01:52;;;;;;;2.50;0.98;;;23.50;69.80;;;;;;4209710;28;20052;-58
2021/06/26 10:04:18;;;;;;;0.90;0.90;;;23.50;69.80;;;;;;4209986;28;20090;-58
2021/06/26 10:06:41;;;;;;;0.60;0.60;;;23.50;69.80;;;;;;4209837;28;20063;-59
2021/06/26 10:09:04;;;;;;;0.22;0.22;;;23.50;69.70;;;;;;4209843;28;20059;-58
2021/06/26 10:11:29;;;;;;;1.02;0.98;;;23.60;69.70;;;;;;4193323;28;20048;-58
2021/06/26 10:13:51;;;;;;;0.85;0.85;;;23.60;69.70;;;;;;4193032;28;20449;-58
2021/06/26 10:16:15;;;;;;;0.52;0.52;;;23.50;69.60;;;;;;4193175;28;20048;-58
2021/06/26 10:18:40;;;;;;;0.88;0.88;;;23.60;69.60;;;;;;4176077;28;20053;-58
2021/06/26 10:21:03;;;;;;;0.45;0.45;;;23.60;69.40;;;;;;4162318;28;20061;-58
2021/06/26 10:23:31;;;;;;;0.73;0.73;;;23.60;69.40;;;;;;4176039;28;20080;-58
2021/06/26 10:25:53;;;;;;;0.70;0.70;;;23.60;69.30;;;;;;4190566;28;20055;-58
2021/06/26 10:28:16;;;;;;;1.80;0.65;;;23.60;69.30;;;;;;4192840;28;20086;-58
2021/06/26 10:30:39;;;;;;;0.00;0.00;;;23.60;69.30;;;;;;4207104;28;20410;-58
2021/06/26 10:33:05;;;;;;;2.35;1.38;;;23.60;69.10;;;;;;4209483;28;20138;-58
2021/06/26 10:35:28;;;;;;;0.40;0.40;;;23.70;69.20;;;;;;4193505;28;20048;-58
2021/06/26 10:38:05;;;;;;;0.52;0.52;;;23.70;69.30;;;;;;4197674;28;20139;-58
2021/06/26 10:40:43;;;;;;;0.28;0.28;;;23.70;69.30;;;;;;4192297;28;20457;-58
2021/06/26 10:43:23;;;;;;;0.98;0.98;;;23.70;69.30;;;;;;4187923;28;20053;-58
2021/06/26 10:45:49;;;;;;;0.40;0.40;;;23.70;69.30;;;;;;4206433;28;20517;-58
2021/06/26 10:48:20;;;;;;;0.20;0.20;;;23.70;69.30;;;;;;4198928;28;20075;-58
2021/06/26 10:50:46;;;;;;;1.23;1.23;;;23.70;69.20;;;;;;4208591;28;20048;-56
2021/06/26 10:53:08;;;;;;;1.25;0.63;;;23.70;69.20;;;;;;4208495;28;20048;-71
2021/06/26 10:55:32;;;;;;;0.47;0.47;;;23.80;69.40;;;;;;4207491;28;20077;-69
2021/06/26 10:57:55;;;;;;;0.40;0.40;;;23.80;69.80;;;;;;4192438;28;20044;-74
2021/06/26 11:00:18;;;;;;;0.43;0.43;;;23.90;70.00;;;;;;4189436;28;20135;-70
2021/06/26 11:02:41;;;;;;;0.68;0.68;;;23.90;70.50;;;;;;4207157;28;20097;-74
2021/06/26 11:05:06;;;;;;;0.03;0.03;;;24.00;70.90;;;;;;4209270;28;20052;-75
2021/06/26 11:07:33;;;;;;;0.47;0.47;;;24.00;70.70;;;;;;4208774;28;20122;-72
2021/06/26 11:10:08;;;;;;;0.00;0.00;;;24.00;70.60;;;;;;4208685;28;20066;-74
2021/06/26 11:12:38;;;;;;;0.65;0.65;;;24.00;70.40;;;;;;4208826;28;20044;-73
2021/06/26 11:15:01;;;;;;;0.47;0.47;;;24.00;70.30;;;;;;4208063;28;20783;-77
2021/06/26 11:17:34;;;;;;;1.20;0.65;;;24.00;70.20;;;;;;4208474;28;20414;-75
2021/06/26 11:19:59;;;;;;;0.32;0.32;;;24.00;70.00;;;;;;4207662;28;20452;-74
2021/06/26 11:22:22;;;;;;;1.00;1.00;;;24.00;69.80;;;;;;4208891;28;20147;-74
2021/06/26 11:24:54;;;;;;;0.32;0.30;;;24.00;69.60;;;;;;4208009;28;20056;-74
2021/06/26 11:27:20;;;;;;;34.05;1.65;;;24.00;69.60;;;;;;4195189;28;20129;-74
2021/06/26 11:29:43;;;;;;;0.40;0.40;;;24.00;69.50;;;;;;4207208;28;20105;-76
2021/06/26 11:32:08;;;;;;;0.73;0.73;;;24.10;69.30;;;;;;4200358;28;20075;-69
2021/06/26 11:34:30;;;;;;;0.13;0.13;;;24.10;69.10;;;;;;4187684;28;20785;-75
2021/06/26 11:37:01;;;;;;;0.43;0.43;;;24.10;69.10;;;;;;4191868;28;20083;-70
2021/06/26 11:39:25;;;;;;;0.10;0.10;;;24.10;69.60;;;;;;4191082;28;20048;-70
2021/06/26 11:41:47;;;;;;;13.90;2.80;;;24.10;69.80;;;;;;4207904;28;20054;-65
2021/06/26 11:44:09;;;;;;;0.65;0.65;;;24.20;70.40;;;;;;4191613;28;20068;-65
2021/06/26 11:46:31;;;;;;;0.30;0.30;;;24.20;70.30;;;;;;4189724;28;20048;-65
2021/06/26 11:48:53;;;;;;;0.68;0.68;;;24.20;70.40;;;;;;4206241;28;20068;-70
2021/06/26 11:51:15;;;;;;;0.17;0.17;;;24.20;70.50;;;;;;4207679;28;20078;-67
2021/06/26 11:53:38;;;;;;;0.70;0.70;;;24.20;70.70;;;;;;4203349;28;20044;-66
2021/06/26 11:56:03;;;;;;;0.17;0.17;;;24.20;71.50;;;;;;4200053;28;20383;-67
2021/06/26 11:58:37;;;;;;;0.38;0.38;;;24.30;71.90;;;;;;4208266;28;20047;-66
2021/06/26 12:01:02;;;;;;;0.55;0.55;;;24.30;72.10;;;;;;4207006;28;20101;-63
2021/06/26 12:03:24;;;;;;;0.38;0.38;;;24.30;72.40;;;;;;4204574;28;20083;-62
2021/06/26 12:05:47;;;;;;;0.40;0.40;;;24.30;71.70;;;;;;4208119;28;20044;-63
2021/06/26 12:08:09;;;;;;;2.60;1.00;;;24.30;71.80;;;;;;4208039;28;20414;-63
2021/06/26 12:10:32;;;;;;;0.10;0.10;;;24.30;72.20;;;;;;4207494;28;20063;-62
2021/06/26 12:12:57;;;;;;;6.07;3.17;;;24.20;72.20;;;;;;4207149;28;20490;-63
2021/06/26 12:15:20;;;;;;;0.00;0.00;;;24.20;72.20;;;;;;4178385;28;20073;-63
2021/06/26 12:17:42;;;;;;;0.10;0.10;;;24.20;71.90;;;;;;4202768;28;20051;-63
2021/06/26 12:20:07;;;;;;;0.10;0.10;;;24.20;71.60;;;;;;4206727;28;20043;-63
2021/06/26 12:22:30;;;;;;;0.95;0.95;;;24.20;71.40;;;;;;4207827;28;20044;-63
2021/06/26 12:24:52;;;;;;;0.90;0.90;;;24.20;71.30;;;;;;4207877;28;20040;-64